Time;durP1;ratioP1;P1;durP2;ratioP2;P2;SDS_P1;SDS_P2;PMS_P1;PMS_P2;Temp;Humidity;BMP_temperature;BMP_pressure;BME280_temperature;BME280_humidity;BME280_pressure;Samples;Min_cycle;Max_cycle;Signal;HPM_P1;HPM_P2
2023/05/31 00:00:41;;;;;;;;;;;17.00;75.20;;;;;;21001659;28;20365;-57
2023/05/31 00:10:41;;;;;;;;;;;16.80;75.80;;;;;;21001011;28;19969;-56
2023/05/31 00:20:42;;;;;;;;;;;16.70;76.30;;;;;;20998749;28;19947;-57
2023/05/31 00:30:42;;;;;;;;;;;16.70;76.60;;;;;;21000407;28;20285;-58
2023/05/31 00:40:44;;;;;;;;;;;16.60;76.50;;;;;;20999474;28;19925;-57
2023/05/31 00:50:46;;;;;;;;;;;16.40;76.80;;;;;;20997721;28;19924;-56
2023/05/31 01:00:46;;;;;;;;;;;16.40;76.80;;;;;;20998607;28;19924;-58
2023/05/31 01:10:48;;;;;;;;;;;16.30;76.90;;;;;;20998109;28;19931;-56
2023/05/31 01:20:49;;;;;;;;;;;16.20;77.20;;;;;;20996558;28;19935;-56
2023/05/31 01:30:50;;;;;;;;;;;16.20;77.20;;;;;;20996529;28;19931;-57
2023/05/31 01:40:52;;;;;;;;;;;16.00;77.80;;;;;;20996372;28;19924;-56
2023/05/31 01:50:53;;;;;;;;;;;16.00;77.60;;;;;;20996143;28;20009;-58
2023/05/31 02:00:54;;;;;;;;;;;15.90;77.70;;;;;;20994512;28;20381;-56
2023/05/31 02:10:55;;;;;;;;;;;16.00;77.90;;;;;;20995475;28;19946;-56
2023/05/31 02:20:56;;;;;;;;;;;16.20;77.40;;;;;;20993997;28;20031;-55
2023/05/31 02:30:57;;;;;;;;;;;16.00;77.50;;;;;;20994833;28;19979;-55
2023/05/31 02:40:58;;;;;;;;;;;16.00;77.40;;;;;;20994295;28;20403;-55
2023/05/31 02:50:58;;;;;;;;;;;15.80;77.60;;;;;;21008734;28;20018;-56
2023/05/31 03:01:00;;;;;;;;;;;15.80;77.60;;;;;;21008132;28;19951;-57
2023/05/31 03:11:00;;;;;;;;;;;15.80;77.50;;;;;;21007198;28;20237;-56
2023/05/31 03:21:01;;;;;;;;;;;15.80;77.30;;;;;;21005591;28;19967;-56
2023/05/31 03:31:02;;;;;;;;;;;15.70;77.60;;;;;;21004944;28;20069;-56
2023/05/31 03:41:02;;;;;;;;;;;15.60;77.60;;;;;;21004228;28;19929;-56
2023/05/31 03:51:03;;;;;;;;;;;15.60;77.70;;;;;;21002207;28;19978;-56
2023/05/31 04:01:04;;;;;;;;;;;15.40;77.90;;;;;;21002830;28;19924;-56
2023/05/31 04:11:04;;;;;;;;;;;15.70;77.70;;;;;;21002345;28;20339;-56
2023/05/31 04:21:05;;;;;;;;;;;15.70;77.60;;;;;;21001978;28;20255;-56
2023/05/31 04:31:06;;;;;;;;;;;15.70;77.50;;;;;;20999527;28;20019;-55
2023/05/31 04:41:07;;;;;;;;;;;15.70;77.50;;;;;;20998978;28;19978;-55
2023/05/31 04:51:07;;;;;;;;;;;15.70;77.00;;;;;;20998063;28;20439;-56
2023/05/31 05:01:08;;;;;;;;;;;15.50;77.40;;;;;;20998656;28;19930;-56
2023/05/31 05:11:09;;;;;;;;;;;15.40;77.80;;;;;;20995935;28;20320;-56
2023/05/31 05:21:09;;;;;;;;;;;15.40;77.90;;;;;;20997903;28;19928;-56
2023/05/31 05:31:10;;;;;;;;;;;15.60;77.40;;;;;;20996987;28;19924;-57
2023/05/31 05:41:12;;;;;;;;;;;15.60;76.90;;;;;;20996574;28;19979;-56
2023/05/31 05:51:13;;;;;;;;;;;15.60;77.20;;;;;;20996179;28;19970;-56
2023/05/31 06:01:20;;;;;;;;;;;15.70;76.80;;;;;;20995266;28;19925;-56
2023/05/31 06:11:22;;;;;;;;;;;15.80;76.30;;;;;;20994803;28;20297;-56
2023/05/31 06:21:23;;;;;;;;;;;15.90;76.00;;;;;;21003028;28;19931;-56
2023/05/31 06:31:23;;;;;;;;;;;16.00;75.70;;;;;;21009247;28;19974;-56
2023/05/31 06:41:25;;;;;;;;;;;16.20;75.30;;;;;;21009003;28;19986;-57
2023/05/31 06:51:25;;;;;;;;;;;16.40;75.00;;;;;;21007906;28;19978;-56
2023/05/31 07:01:26;;;;;;;;;;;16.90;73.70;;;;;;21007227;28;19924;-56
2023/05/31 07:11:27;;;;;;;;;;;17.60;70.90;;;;;;21006861;28;19925;-57
2023/05/31 07:21:27;;;;;;;;;;;18.30;68.60;;;;;;21004847;28;19971;-57
2023/05/31 07:31:28;;;;;;;;;;;19.10;65.80;;;;;;21005155;28;19948;-56
2023/05/31 07:41:28;;;;;;;;;;;19.50;64.30;;;;;;21003901;28;20373;-56
2023/05/31 07:51:30;;;;;;;;;;;19.80;63.40;;;;;;21003583;28;19935;-58
2023/05/31 08:01:30;;;;;;;;;;;20.40;61.20;;;;;;21000671;28;20022;-60
2023/05/31 08:11:31;;;;;;;;;;;21.20;60.30;;;;;;21001995;28;20011;-60
2023/05/31 08:21:32;;;;;;;;;;;21.60;58.70;;;;;;21000057;28;19924;-55
2023/05/31 08:31:34;;;;;;;;;;;22.00;59.20;;;;;;21000038;28;19932;-58
2023/05/31 08:41:38;;;;;;;;;;;22.20;58.80;;;;;;20997590;28;19970;-60
2023/05/31 08:51:40;;;;;;;;;;;22.10;58.70;;;;;;20997531;28;19970;-59
2023/05/31 09:01:41;;;;;;;;;;;22.50;57.40;;;;;;20998260;28;19976;-58
2023/05/31 09:11:41;;;;;;;;;;;22.60;57.00;;;;;;20996478;28;20294;-60
2023/05/31 09:21:43;;;;;;;;;;;22.70;57.10;;;;;;20995920;28;20015;-55
2023/05/31 09:31:44;;;;;;;;;;;22.60;56.10;;;;;;20996168;28;19924;-57
2023/05/31 09:41:48;;;;;;;;;;;22.90;55.20;;;;;;20991140;28;19925;-56
2023/05/31 09:51:50;;;;;;;;;;;22.70;52.90;;;;;;20993255;28;20444;-56
2023/05/31 10:01:51;;;;;;;;;;;22.40;53.60;;;;;;21003372;28;20036;-57
2023/05/31 10:11:53;;;;;;;;;;;22.40;53.10;;;;;;21011656;28;19931;-57
2023/05/31 10:21:56;;;;;;;;;;;22.90;50.80;;;;;;21009933;28;19948;-56
2023/05/31 10:32:08;;;;;;;;;;;23.10;49.60;;;;;;21008533;28;19925;-56
2023/05/31 10:42:19;;;;;;;;;;;23.30;50.00;;;;;;21009109;28;19924;-56
2023/05/31 10:52:20;;;;;;;;;;;23.10;49.00;;;;;;21008617;28;20360;-56
2023/05/31 11:02:22;;;;;;;;;;;23.40;48.50;;;;;;21007139;28;19986;-56
2023/05/31 11:12:32;;;;;;;;;;;23.50;47.90;;;;;;21006193;28;19932;-56
2023/05/31 11:22:33;;;;;;;;;;;23.60;47.10;;;;;;21005611;28;19925;-56
2023/05/31 11:32:33;;;;;;;;;;;23.70;46.00;;;;;;21004893;28;19924;-56
2023/05/31 11:42:36;;;;;;;;;;;23.70;43.70;;;;;;21004047;28;19925;-56
2023/05/31 11:52:38;;;;;;;;;;;23.80;42.80;;;;;;21002219;28;19932;-57
2023/05/31 12:02:39;;;;;;;;;;;24.00;44.00;;;;;;21002998;28;20358;-57
2023/05/31 12:12:40;;;;;;;;;;;24.10;43.40;;;;;;21002224;28;20040;-56
2023/05/31 12:22:41;;;;;;;;;;;24.30;43.20;;;;;;20999640;28;19985;-57
2023/05/31 12:32:45;;;;;;;;;;;24.30;42.00;;;;;;21000041;28;19977;-57
2023/05/31 12:42:45;;;;;;;;;;;23.90;42.60;;;;;;20998776;28;19924;-56
2023/05/31 12:52:54;;;;;;;;;;;24.10;43.40;;;;;;20996934;28;20289;-56
2023/05/31 13:02:56;;;;;;;;;;;24.40;42.20;;;;;;20995654;28;20018;-56
2023/05/31 13:12:56;;;;;;;;;;;24.40;41.20;;;;;;20997416;28;20438;-56
2023/05/31 13:22:57;;;;;;;;;;;24.30;40.80;;;;;;20995608;28;19925;-55
2023/05/31 13:32:58;;;;;;;;;;;24.60;40.60;;;;;;20995548;28;20385;-57
2023/05/31 13:42:58;;;;;;;;;;;24.90;38.80;;;;;;20996169;28;20069;-55
2023/05/31 13:52:59;;;;;;;;;;;25.20;38.00;;;;;;20995432;28;20016;-57
2023/05/31 14:13:19;;;;;;;;;;;25.30;37.30;;;;;;20994592;28;20370;-57
2023/05/31 14:23:20;;;;;;;;;;;25.30;38.30;;;;;;20993454;28;19983;-56
2023/05/31 14:33:23;;;;;;;;;;;25.10;38.20;;;;;;20993130;28;20011;-59
2023/05/31 14:43:24;;;;;;;;;;;25.10;38.40;;;;;;21003798;28;19978;-57
2023/05/31 14:53:25;;;;;;;;;;;25.60;35.80;;;;;;21008596;28;19924;-56
2023/05/31 15:03:25;;;;;;;;;;;25.40;37.00;;;;;;21007236;28;19928;-58
2023/05/31 15:13:26;;;;;;;;;;;25.80;36.60;;;;;;21006656;28;19932;-57
2023/05/31 15:23:26;;;;;;;;;;;25.60;36.50;;;;;;21007237;28;19931;-56
2023/05/31 15:33:27;;;;;;;;;;;25.60;37.40;;;;;;21004193;28;19924;-55
2023/05/31 15:43:28;;;;;;;;;;;25.60;36.50;;;;;;21004471;28;20354;-57
2023/05/31 15:53:28;;;;;;;;;;;25.40;38.30;;;;;;21003221;28;19968;-60
2023/05/31 16:03:30;;;;;;;;;;;25.70;41.10;;;;;;21002764;28;19924;-57
2023/05/31 16:13:30;;;;;;;;;;;25.80;40.40;;;;;;21001634;28;20304;-58
2023/05/31 16:23:31;;;;;;;;;;;25.70;40.30;;;;;;20999853;28;19975;-59
2023/05/31 16:33:32;;;;;;;;;;;25.70;41.30;;;;;;21000169;28;19999;-58
2023/05/31 16:43:32;;;;;;;;;;;25.70;40.10;;;;;;20997692;28;19944;-57
2023/05/31 16:53:33;;;;;;;;;;;25.40;40.70;;;;;;20998388;28;20409;-59
2023/05/31 17:03:33;;;;;;;;;;;25.30;39.90;;;;;;20997051;28;19924;-57
2023/05/31 17:13:34;;;;;;;;;;;25.30;41.50;;;;;;20996434;28;19924;-59
2023/05/31 17:23:35;;;;;;;;;;;25.10;41.70;;;;;;20995255;28;19932;-57
2023/05/31 17:33:37;;;;;;;;;;;24.90;42.00;;;;;;20994449;28;20445;-57
2023/05/31 17:43:38;;;;;;;;;;;24.90;41.90;;;;;;20994952;28;20381;-56
2023/05/31 17:53:38;;;;;;;;;;;25.10;41.40;;;;;;20995850;28;19928;-56
2023/05/31 18:03:39;;;;;;;;;;;24.70;42.70;;;;;;20994181;28;20297;-57
2023/05/31 18:13:40;;;;;;;;;;;24.80;42.60;;;;;;20999902;28;20309;-55
2023/05/31 18:23:40;;;;;;;;;;;24.70;42.70;;;;;;21009727;28;19997;-58
2023/05/31 18:33:41;;;;;;;;;;;24.60;42.00;;;;;;21009476;28;19970;-55
2023/05/31 18:43:41;;;;;;;;;;;24.50;42.60;;;;;;21009253;28;19925;-57
2023/05/31 18:53:42;;;;;;;;;;;24.30;42.60;;;;;;21008346;28;20471;-57
2023/05/31 19:03:43;;;;;;;;;;;24.20;43.50;;;;;;21007563;28;19951;-57
2023/05/31 19:13:43;;;;;;;;;;;24.10;44.20;;;;;;21006863;28;19925;-56
2023/05/31 19:23:47;;;;;;;;;;;23.90;44.70;;;;;;21003960;28;19925;-55
2023/05/31 19:33:47;;;;;;;;;;;23.60;45.40;;;;;;21004255;28;20038;-56
2023/05/31 19:43:48;;;;;;;;;;;23.50;45.90;;;;;;21003619;28;19925;-57
2023/05/31 19:53:49;;;;;;;;;;;23.30;45.80;;;;;;21003191;28;19924;-56
2023/05/31 20:03:50;;;;;;;;;;;23.10;46.10;;;;;;21001944;28;19971;-56
2023/05/31 20:13:50;;;;;;;;;;;23.00;46.30;;;;;;21002325;28;20017;-55
2023/05/31 20:23:51;;;;;;;;;;;22.80;46.80;;;;;;21000180;28;20037;-55
2023/05/31 20:33:53;;;;;;;;;;;22.70;47.70;;;;;;20999984;28;19975;-56
2023/05/31 20:43:53;;;;;;;;;;;22.60;48.80;;;;;;20997318;28;20400;-56
2023/05/31 20:53:54;;;;;;;;;;;22.60;49.30;;;;;;20998018;28;20011;-55
2023/05/31 21:03:56;;;;;;;;;;;22.50;49.30;;;;;;20997359;28;19924;-56
2023/05/31 21:13:57;;;;;;;;;;;22.30;49.40;;;;;;20997906;28;19986;-56
2023/05/31 21:23:58;;;;;;;;;;;22.40;49.40;;;;;;20998048;28;19925;-56
2023/05/31 21:33:59;;;;;;;;;;;22.40;49.60;;;;;;20995350;28;19931;-57
2023/05/31 21:43:59;;;;;;;;;;;22.30;49.70;;;;;;20993427;28;19924;-57
2023/05/31 21:54:02;;;;;;;;;;;22.20;49.90;;;;;;21008989;28;20492;-57
2023/05/31 22:04:03;;;;;;;;;;;22.10;50.60;;;;;;21011078;28;19948;-57
2023/05/31 22:14:04;;;;;;;;;;;21.70;51.60;;;;;;21010380;28;19928;-55
2023/05/31 22:24:04;;;;;;;;;;;21.30;52.70;;;;;;21008286;28;20129;-56
2023/05/31 22:34:05;;;;;;;;;;;21.20;53.40;;;;;;21008774;28;19925;-56
2023/05/31 22:44:06;;;;;;;;;;;21.10;53.60;;;;;;21008581;28;19925;-56
2023/05/31 22:54:07;;;;;;;;;;;21.00;53.70;;;;;;21006166;28;19986;-56
2023/05/31 23:04:08;;;;;;;;;;;20.90;53.70;;;;;;21005806;28;20373;-56
2023/05/31 23:14:08;;;;;;;;;;;20.70;53.70;;;;;;21006224;28;20246;-55
2023/05/31 23:24:09;;;;;;;;;;;20.70;53.30;;;;;;21004296;28;19931;-56
2023/05/31 23:34:10;;;;;;;;;;;20.60;54.00;;;;;;21004830;28;19983;-55
2023/05/31 23:44:10;;;;;;;;;;;20.40;54.30;;;;;;21003861;28;19931;-55
2023/05/31 23:54:11;;;;;;;;;;;20.40;55.20;;;;;;21003009;28;19925;-55
